Pagina principale
METAR-TAF:

METAR-TAF

Aeroporti :

Aviano, Italia

Base aerea di Aviano

latitudine: 46-02N, longitudine: 012-36E, altezza: 128 m

Osservazione

Il bollettino è stato emesso 1 ora e 17 minuti fa, alle 06:55 UTC
Vento 2 kt da ovest/sud-ovest
Temperature 20°C
Umidità 78%
Pressione 1020 hPa
Visibilità 10 km o più
Poco nuvoloso ad un'altezza di 6000 ft

METAR: LIPA 270655Z 25002KT 9999 FEW060 20/16 Q1020 RMK FEW VIS MIN 9999 WIND THR05 25002KT WIND THR23 18002KT A3014 BLU

Ora: 10:12 (08:12 UTC)

Previsione

Il bollettino è stato emesso 3 ore e 12 minuti fa, alle 05:00 UTC
Previsione valida dal 27 alle 06 UTC al 27 alle 15 UTC
Vento 5 kt da nord-ovest
Visibilità 10 km o più
Poco nuvoloso ad un'altezza di 7000 ft
Probabilità 30% :
Temporaneamente
dal 27 alle 12 UTC al 27 alle 15 UTC
Visibilità: 5000 m
Poco nuvoloso ad un'altezza di 2000 ft
rovesci di pioggia

TAF: LIPA 270500Z 2706/2715 31005KT 9999 FEW070 PROB30 TEMPO 2712/2715 5000 SHRA FEW020

Osservazioni e previsioni meteorologiche di più di 4000 aeroporti (messaggi METAR e TAF).

Le stazioni disponibili sono rappresentate dai dischi gialli e rossi sulla carta.

Puntare il mouse per vedere il nome della stazione.

Clicca sopra per visualizzare le osservazioni e previsioni meteorologiche.

Per cambiare la mappa : fare clic sui pulsanti verdi con una croce nera per ingrandire, il pulsante verde con un trattino per diminuire, o sulla freccia verde per le mappe adiacenti.


METAR-TAF: